16  °C
Temperature
61  °F
Temperature
52  °F
 Dewpoint
11  °C
  Dewpoint
72  %
 Humidity
  Temperature
12  mph
Wind Speed
10  kts
Wind Speed
19  km/h
Wind Speed
5.4  m/s
Wind Speed
270°
Due West

Wind Speed
Overcast
Conditions
Pressure 1025.92 (mb) - 30.3 (inHG)
Visibility 6.2 (mi) - 10.0 (km)

Sky Conditions
EGGD
Location Bristol International 15 mi (24.14 km)
Metar :EGGD 201750Z AUTO 27010KT 9999 OVC032 16/11 Q1026
Tue 20th August 18:50 pm

Nearest Airport
https://www.checkwx.com/weather/EGGD
  Metar Aviation API Data Provided by https://www.checkwx.com/ Original CSS/SVG/PHP scripts by weather34.com © 2015-2019